createdAt,value
2018-11-01T00:00:37.176Z,19.32
2018-11-01T00:03:18.129Z,15.85
2018-11-01T00:05:46.857Z,17.37
2018-11-01T00:08:15.804Z,17.87
2018-11-01T00:10:46.493Z,14.90
2018-11-01T00:13:21.548Z,17.37
2018-11-01T00:15:51.761Z,13.68
2018-11-01T00:18:20.796Z,16.57
2018-11-01T00:20:50.710Z,12.88
2018-11-01T00:23:19.919Z,12.45
2018-11-01T00:25:48.849Z,13.83
2018-11-01T00:28:18.718Z,13.18
2018-11-01T00:30:48.722Z,12.93
2018-11-01T00:33:17.725Z,14.15
2018-11-01T00:35:49.767Z,13.90
2018-11-01T00:38:18.651Z,16.63
2018-11-01T00:40:47.542Z,13.35
2018-11-01T00:43:16.580Z,12.98
2018-11-01T00:45:45.450Z,12.53
2018-11-01T00:48:14.442Z,13.70
2018-11-01T00:50:43.370Z,12.47
2018-11-01T00:53:12.554Z,13.68
2018-11-01T00:55:41.522Z,11.05
2018-11-01T00:58:10.438Z,13.62
2018-11-01T01:00:41.562Z,12.00
2018-11-01T01:03:10.819Z,10.38
2018-11-01T01:05:40.354Z,13.05
2018-11-01T01:08:08.998Z,14.95
2018-11-01T01:10:37.702Z,12.53
2018-11-01T01:13:06.342Z,11.35
2018-11-01T01:15:34.913Z,9.88
2018-11-01T01:18:03.757Z,12.55
2018-11-01T01:20:39.542Z,12.75
2018-11-01T01:23:11.969Z,10.13
2018-11-01T01:25:42.609Z,12.23
2018-11-01T01:28:12.610Z,11.90
2018-11-01T01:30:42.282Z,10.85
2018-11-01T01:33:14.400Z,9.47
2018-11-01T01:35:44.319Z,10.05
2018-11-01T01:38:12.894Z,9.98
2018-11-01T01:40:41.470Z,9.33
2018-11-01T01:43:10.169Z,11.78
2018-11-01T01:48:21.593Z,9.50
2018-11-01T01:50:50.160Z,11.18
2018-11-01T01:53:18.609Z,12.28
2018-11-01T01:55:47.937Z,9.53
2018-11-01T01:58:16.785Z,10.50
2018-11-01T02:00:45.477Z,9.73
2018-11-01T02:03:14.237Z,9.68
2018-11-01T02:05:44.126Z,9.10
2018-11-01T02:08:13.001Z,9.48
2018-11-01T02:10:42.102Z,10.13
2018-11-01T02:13:11.521Z,10.82
2018-11-01T02:15:40.220Z,12.25
2018-11-01T02:18:13.929Z,11.85
2018-11-01T02:20:43.050Z,11.05
2018-11-01T02:23:46.889Z,10.55
2018-11-01T02:29:07.061Z,10.08
2018-11-01T02:31:36.069Z,9.70
2018-11-01T02:34:05.753Z,13.70
2018-11-01T02:36:36.552Z,8.70
2018-11-01T02:39:12.361Z,9.62
2018-11-01T02:42:14.553Z,9.93
2018-11-01T02:44:46.229Z,9.05
2018-11-01T02:47:16.145Z,10.93
2018-11-01T02:49:50.311Z,10.15
2018-11-01T02:52:20.761Z,16.20
2018-11-01T02:54:56.122Z,11.90
2018-11-01T02:57:29.421Z,9.93
2018-11-01T03:00:02.989Z,14.70
2018-11-01T03:02:36.648Z,13.72
2018-11-01T03:05:09.596Z,13.15
2018-11-01T03:07:42.067Z,15.18
2018-11-01T03:10:14.236Z,15.20
2018-11-01T03:12:45.396Z,12.73
2018-11-01T03:15:19.000Z,12.27
2018-11-01T03:17:49.968Z,14.75
2018-11-01T03:20:22.455Z,12.28
2018-11-01T03:22:55.908Z,14.33
2018-11-01T03:25:24.747Z,11.33
2018-11-01T03:27:53.948Z,12.93
2018-11-01T03:30:23.607Z,12.20
2018-11-01T03:32:52.747Z,13.30
2018-11-01T03:35:23.732Z,12.58
2018-11-01T03:37:55.069Z,16.10
2018-11-01T03:40:27.576Z,14.50
2018-11-01T03:42:57.051Z,14.83
2018-11-01T03:45:29.840Z,16.60
2018-11-01T03:47:59.363Z,15.08
2018-11-01T03:50:29.615Z,13.03
2018-11-01T03:53:01.323Z,12.50
2018-11-01T03:55:30.024Z,12.90
2018-11-01T03:57:58.759Z,13.18
2018-11-01T04:00:27.836Z,11.48
2018-11-01T04:03:00.251Z,13.93
2018-11-01T04:05:29.335Z,15.28
2018-11-01T04:07:58.111Z,13.48
2018-11-01T04:10:26.775Z,18.40
2018-11-01T04:12:55.453Z,14.80
2018-11-01T04:15:24.083Z,11.57
2018-11-01T04:17:53.247Z,13.05
2018-11-01T04:20:21.848Z,15.10
2018-11-01T04:22:50.554Z,12.75
2018-11-01T04:25:19.331Z,13.83
2018-11-01T04:27:48.712Z,15.63
2018-11-01T04:30:17.419Z,14.98
2018-11-01T04:32:46.155Z,11.88
2018-11-01T04:35:14.931Z,14.10
2018-11-01T04:37:43.615Z,12.28
2018-11-01T04:40:12.443Z,12.68
2018-11-01T04:42:41.787Z,12.07
2018-11-01T04:45:11.925Z,15.30
2018-11-01T04:47:40.879Z,14.58
2018-11-01T04:50:11.328Z,14.75
2018-11-01T04:52:40.311Z,10.10
2018-11-01T04:55:09.442Z,13.70
2018-11-01T04:57:38.667Z,13.25
2018-11-01T05:00:09.855Z,13.43
2018-11-01T05:02:38.703Z,14.47
2018-11-01T05:05:07.693Z,18.15
2018-11-01T05:07:36.591Z,16.27
2018-11-01T05:10:06.916Z,13.25
2018-11-01T05:12:36.571Z,16.30
2018-11-01T05:15:05.580Z,16.97
2018-11-01T05:17:34.320Z,15.35
2018-11-01T05:20:03.031Z,19.90
2018-11-01T05:22:32.029Z,18.48
2018-11-01T05:25:00.827Z,18.50
2018-11-01T05:28:32.463Z,19.73
2018-11-01T05:31:01.630Z,18.70
2018-11-01T05:33:30.766Z,18.65
2018-11-01T05:36:00.040Z,20.27
2018-11-01T05:44:29.983Z,16.00
2018-11-01T05:46:59.987Z,17.60
2018-11-01T05:49:28.855Z,20.82
2018-11-01T05:51:58.351Z,16.67
2018-11-01T05:54:27.839Z,16.20
2018-11-01T05:56:56.683Z,16.52
2018-11-01T05:59:25.521Z,19.17
2018-11-01T06:01:57.314Z,17.55
2018-11-01T06:04:26.376Z,13.58
2018-11-01T06:06:55.114Z,17.60
2018-11-01T06:09:29.899Z,16.52
2018-11-01T06:11:59.083Z,16.87
2018-11-01T06:14:28.491Z,17.73
2018-11-01T06:16:57.678Z,17.67
2018-11-01T06:19:26.479Z,19.40
2018-11-01T06:21:55.467Z,20.05
2018-11-01T06:24:24.282Z,20.12
2018-11-01T06:26:53.123Z,21.60
2018-11-01T06:29:21.762Z,17.65
2018-11-01T06:31:50.451Z,19.10
2018-11-01T06:34:23.835Z,19.50
2018-11-01T06:36:52.652Z,21.85
2018-11-01T06:39:21.622Z,22.37
2018-11-01T06:41:51.706Z,19.48
2018-11-01T06:44:20.207Z,25.68
2018-11-01T06:46:48.923Z,21.12
2018-11-01T06:49:18.302Z,21.12
2018-11-01T06:51:48.437Z,21.25
2018-11-01T06:54:17.770Z,21.27
2018-11-01T06:56:46.794Z,20.50
2018-11-01T06:59:16.290Z,22.48
2018-11-01T07:01:45.210Z,22.15
2018-11-01T07:04:13.918Z,22.00
2018-11-01T07:06:42.524Z,22.15
2018-11-01T07:09:13.131Z,23.37
2018-11-01T07:12:12.656Z,22.15
2018-11-01T07:14:41.464Z,23.67
2018-11-01T07:17:10.326Z,24.63
2018-11-01T07:19:39.067Z,22.77
2018-11-01T07:22:07.920Z,20.85
2018-11-01T07:24:37.236Z,20.30
2018-11-01T07:27:06.232Z,21.17
2018-11-01T07:29:35.064Z,20.00
2018-11-01T07:32:03.915Z,20.10
2018-11-01T07:35:03.456Z,23.52
2018-11-01T07:37:32.364Z,20.43
2018-11-01T07:40:01.195Z,20.30
2018-11-01T07:42:29.976Z,26.33
2018-11-01T07:44:58.815Z,19.35
2018-11-01T07:47:27.648Z,23.10
2018-11-01T07:49:56.492Z,20.72
2018-11-01T07:52:25.139Z,18.67
2018-11-01T07:58:47.155Z,19.73
2018-11-01T08:04:09.512Z,17.12
2018-11-01T08:06:38.397Z,19.92
2018-11-01T08:09:09.444Z,21.37
2018-11-01T08:11:38.859Z,18.48
2018-11-01T08:14:08.048Z,15.40
2018-11-01T08:16:37.180Z,16.62
2018-11-01T08:19:06.823Z,17.12
2018-11-01T08:21:39.459Z,17.60
2018-11-01T08:24:08.332Z,15.32
2018-11-01T08:26:37.435Z,18.12
2018-11-01T08:29:06.439Z,16.57
2018-11-01T08:31:35.167Z,14.58
2018-11-01T08:34:04.327Z,17.55
2018-11-01T08:36:33.080Z,17.55
2018-11-01T08:39:01.996Z,16.17
2018-11-01T08:41:30.463Z,14.73
2018-11-01T08:43:58.943Z,16.48
2018-11-01T08:46:27.984Z,15.25
2018-11-01T08:48:57.143Z,17.00
2018-11-01T08:51:26.079Z,14.07
2018-11-01T08:53:54.795Z,13.75
2018-11-01T08:56:23.471Z,16.07
2018-11-01T08:58:52.423Z,15.68
2018-11-01T09:01:21.087Z,18.10
2018-11-01T09:03:50.183Z,15.15
2018-11-01T09:06:19.203Z,15.00
2018-11-01T09:08:47.971Z,13.88
2018-11-01T09:11:16.827Z,15.53
2018-11-01T09:13:48.587Z,14.18
2018-11-01T09:16:24.247Z,14.43
2018-11-01T09:18:53.475Z,13.85
2018-11-01T09:21:22.209Z,13.35
2018-11-01T09:23:51.114Z,11.50
2018-11-01T09:26:19.979Z,13.43
2018-11-01T09:28:53.769Z,11.70
2018-11-01T09:31:23.007Z,13.43
2018-11-01T09:33:51.513Z,13.80
2018-11-01T09:36:20.581Z,12.93
2018-11-01T09:41:44.859Z,18.60
2018-11-01T09:44:13.583Z,14.38
2018-11-01T09:46:42.623Z,12.63
2018-11-01T09:49:11.048Z,11.68
2018-11-01T09:51:39.777Z,12.73
2018-11-01T09:54:08.287Z,11.43
2018-11-01T09:56:37.320Z,12.07
2018-11-01T09:59:05.839Z,13.65
2018-11-01T10:01:34.329Z,11.70
2018-11-01T10:04:02.837Z,12.30
2018-11-01T10:06:31.597Z,15.43
2018-11-01T10:09:00.173Z,13.15
2018-11-01T10:11:28.745Z,14.53
2018-11-01T10:13:57.329Z,12.90
2018-11-01T10:16:26.189Z,12.98
2018-11-01T10:18:54.638Z,13.62
2018-11-01T10:21:23.237Z,13.33
2018-11-01T10:23:53.352Z,13.22
2018-11-01T10:26:21.905Z,10.40
2018-11-01T10:28:50.437Z,10.20
2018-11-01T10:31:19.013Z,16.87
2018-11-01T10:33:47.740Z,12.15
2018-11-01T10:36:17.437Z,12.37
2018-11-01T10:38:46.277Z,11.57
2018-11-01T10:41:15.134Z,13.55
2018-11-01T10:43:43.593Z,11.53
2018-11-01T10:46:12.398Z,11.70
2018-11-01T10:48:41.233Z,11.22
2018-11-01T10:51:09.768Z,13.43
2018-11-01T10:53:38.709Z,15.88
2018-11-01T10:56:07.207Z,13.25
2018-11-01T10:58:35.769Z,11.60
2018-11-01T11:03:16.040Z,10.63
2018-11-01T11:05:44.592Z,10.65
2018-11-01T11:08:13.400Z,11.65
2018-11-01T11:10:44.016Z,9.15
2018-11-01T11:13:12.760Z,10.45
2018-11-01T11:15:41.492Z,12.40
2018-11-01T11:18:10.324Z,16.30
2018-11-01T11:20:39.165Z,12.03
2018-11-01T11:23:10.744Z,11.86
2018-11-01T11:29:01.184Z,11.35
2018-11-01T11:31:30.000Z,12.43
2018-11-01T11:33:58.536Z,14.70
2018-11-01T11:36:27.109Z,12.73
2018-11-01T11:38:55.758Z,12.40
2018-11-01T11:41:24.359Z,10.32
2018-11-01T11:43:52.840Z,12.47
2018-11-01T11:46:22.139Z,11.22
2018-11-01T11:48:50.660Z,10.55
2018-11-01T11:51:19.255Z,10.50
2018-11-01T11:53:47.839Z,11.15
2018-11-01T11:56:16.412Z,10.55
2018-11-01T11:58:44.924Z,8.55
2018-11-01T12:01:13.455Z,10.75
2018-11-01T12:03:42.084Z,7.87
2018-11-01T12:06:10.812Z,12.70
2018-11-01T12:08:39.635Z,9.65
2018-11-01T12:11:08.124Z,10.60
2018-11-01T12:13:36.595Z,9.28
2018-11-01T12:16:05.764Z,14.60
2018-11-01T12:18:34.263Z,16.73
2018-11-01T12:21:02.757Z,10.15
2018-11-01T12:23:31.244Z,12.25
2018-11-01T12:26:00.332Z,8.35
2018-11-01T12:28:28.926Z,10.95
2018-11-01T12:30:57.363Z,11.28
2018-11-01T12:33:25.879Z,9.50
2018-11-01T12:35:54.409Z,9.30
2018-11-01T12:38:22.864Z,8.57
2018-11-01T12:40:51.915Z,10.43
2018-11-01T12:43:20.495Z,11.12
2018-11-01T12:45:48.963Z,8.80
2018-11-01T12:48:17.447Z,10.58
2018-11-01T12:50:45.984Z,12.85
2018-11-01T12:53:14.523Z,10.55
2018-11-01T12:55:43.011Z,11.95
2018-11-01T12:59:14.396Z,7.92
2018-11-01T13:01:42.882Z,10.15
2018-11-01T13:04:11.366Z,11.90
2018-11-01T13:06:40.403Z,9.98
2018-11-01T13:09:11.996Z,12.07
2018-11-01T13:11:40.451Z,10.03
2018-11-01T13:14:09.255Z,11.02
2018-11-01T13:16:38.260Z,8.40
2018-11-01T13:19:06.905Z,13.70
2018-11-01T13:21:35.415Z,10.70
2018-11-01T13:24:04.742Z,9.50
2018-11-01T13:26:33.256Z,11.65
2018-11-01T13:29:02.187Z,10.85
2018-11-01T13:31:30.638Z,9.20
2018-11-01T13:33:59.099Z,12.68
2018-11-01T13:36:27.571Z,11.70
2018-11-01T13:38:56.131Z,12.45
2018-11-01T13:41:24.632Z,11.45
2018-11-01T13:43:53.424Z,14.20
2018-11-01T13:46:22.406Z,14.98
2018-11-01T13:48:50.984Z,13.93
2018-11-01T13:51:19.726Z,14.05
2018-11-01T13:53:49.043Z,14.07
2018-11-01T13:56:17.611Z,15.90
2018-11-01T13:58:46.422Z,21.25
2018-11-01T14:01:15.285Z,17.00
2018-11-01T14:03:43.830Z,18.25
2018-11-01T14:06:12.335Z,14.40
2018-11-01T14:11:48.778Z,17.55
2018-11-01T14:14:17.564Z,20.25
2018-11-01T14:16:46.083Z,20.68
2018-11-01T14:19:14.870Z,21.07
2018-11-01T14:21:45.087Z,18.37
2018-11-01T14:24:22.223Z,21.42
2018-11-01T14:26:50.694Z,19.82
2018-11-01T14:29:20.486Z,20.57
2018-11-01T14:31:48.934Z,25.92
2018-11-01T14:34:17.407Z,21.42
2018-11-01T14:36:45.879Z,23.38
2018-11-01T14:39:17.439Z,24.12
2018-11-01T14:41:45.912Z,23.55
2018-11-01T14:44:14.392Z,29.42
2018-11-01T14:46:43.301Z,26.80
2018-11-01T14:49:11.770Z,26.20
2018-11-01T14:51:40.328Z,29.55
2018-11-01T14:54:09.390Z,31.02
2018-11-01T14:56:38.473Z,30.27
2018-11-01T14:59:07.938Z,27.90
2018-11-01T15:01:35.051Z,25.32
2018-11-01T15:04:03.527Z,32.25
2018-11-01T15:06:32.318Z,26.65
2018-11-01T15:09:00.750Z,29.35
2018-11-01T15:11:29.207Z,31.20
2018-11-01T15:13:57.674Z,30.20
2018-11-01T15:16:26.426Z,28.10
2018-11-01T15:18:55.390Z,31.77
2018-11-01T15:21:23.872Z,25.80
2018-11-01T15:23:52.477Z,29.75
2018-11-01T15:26:21.392Z,31.10
2018-11-01T15:28:49.726Z,31.97
2018-11-01T15:31:18.242Z,35.75
2018-11-01T15:33:46.765Z,27.77
2018-11-01T15:36:15.197Z,29.95
2018-11-01T15:38:43.710Z,29.37
2018-11-01T15:41:13.071Z,31.87
2018-11-01T15:43:42.141Z,31.40
2018-11-01T15:46:11.347Z,35.80
2018-11-01T15:48:40.441Z,34.35
2018-11-01T15:51:10.066Z,38.63
2018-11-01T15:53:38.737Z,39.18
2018-11-01T15:56:07.261Z,35.00
2018-11-01T15:58:35.781Z,38.70
2018-11-01T16:01:05.170Z,37.90
2018-11-01T16:03:34.001Z,38.42
2018-11-01T16:06:05.478Z,41.00
2018-11-01T16:08:33.966Z,38.02
2018-11-01T16:11:02.754Z,33.85
2018-11-01T16:13:31.237Z,42.15
2018-11-01T16:16:00.164Z,37.58
2018-11-01T16:18:29.145Z,34.85
2018-11-01T16:20:57.593Z,43.28
2018-11-01T16:23:26.366Z,37.45
2018-11-01T16:25:54.806Z,38.98
2018-11-01T16:28:23.750Z,40.60
2018-11-01T16:30:52.814Z,38.73
2018-11-01T16:33:21.274Z,41.60
2018-11-01T16:35:49.745Z,39.23
2018-11-01T16:38:18.209Z,42.00
2018-11-01T16:40:46.686Z,42.73
2018-11-01T16:43:15.134Z,44.33
2018-11-01T16:45:43.658Z,43.20
2018-11-01T16:48:12.338Z,44.03
2018-11-01T16:50:40.841Z,45.80
2018-11-01T16:53:09.330Z,45.64
2018-11-01T16:55:37.914Z,45.60
2018-11-01T16:58:06.410Z,42.35
2018-11-01T17:00:35.335Z,40.30
2018-11-01T17:03:03.890Z,41.20
2018-11-01T17:05:32.558Z,39.80
2018-11-01T17:08:01.035Z,42.85
2018-11-01T17:10:29.714Z,46.18
2018-11-01T17:12:58.182Z,43.10
2018-11-01T17:15:26.662Z,51.75
2018-11-01T17:17:55.148Z,42.45
2018-11-01T17:20:23.613Z,44.13
2018-11-01T17:22:52.138Z,57.73
2018-11-01T17:25:20.594Z,48.70
2018-11-01T17:27:49.095Z,53.87
2018-11-01T17:30:17.545Z,49.30
2018-11-01T17:32:50.885Z,46.15
2018-11-01T17:35:19.352Z,54.48
2018-11-01T17:37:47.821Z,51.35
2018-11-01T17:40:16.297Z,46.00
2018-11-01T17:42:45.285Z,51.80
2018-11-01T17:45:14.073Z,50.00
2018-11-01T17:47:42.914Z,54.80
2018-11-01T17:50:14.257Z,50.55
2018-11-01T17:52:43.248Z,53.05
2018-11-01T17:55:11.840Z,52.57
2018-11-01T17:57:40.748Z,58.90
2018-11-01T18:00:10.925Z,61.40
2018-11-01T18:02:39.790Z,52.53
2018-11-01T18:05:09.169Z,52.50
2018-11-01T18:07:37.998Z,49.30
2018-11-01T18:10:07.308Z,51.80
2018-11-01T18:12:36.042Z,60.67
2018-11-01T18:15:05.720Z,53.50
2018-11-01T18:17:34.225Z,56.45
2018-11-01T18:20:02.793Z,55.80
2018-11-01T18:22:31.225Z,51.18
2018-11-01T18:24:59.757Z,60.00
2018-11-01T18:27:28.568Z,51.83
2018-11-01T18:29:57.078Z,54.50
2018-11-01T18:32:25.603Z,54.23
2018-11-01T18:34:54.006Z,49.77
2018-11-01T18:37:22.473Z,50.52
2018-11-01T18:39:50.945Z,54.98
2018-11-01T18:42:19.433Z,57.00
2018-11-01T18:44:47.897Z,58.02
2018-11-01T18:47:16.368Z,54.00
2018-11-01T18:49:44.832Z,51.02
2018-11-01T18:52:13.352Z,54.18
2018-11-01T18:54:41.907Z,56.08
2018-11-01T18:57:10.668Z,47.58
2018-11-01T18:59:39.140Z,53.60
2018-11-01T19:02:07.619Z,55.78
2018-11-01T19:04:36.136Z,50.25
2018-11-01T19:07:05.271Z,55.70
2018-11-01T19:09:33.668Z,58.10
2018-11-01T19:12:02.224Z,51.50
2018-11-01T19:14:30.713Z,58.02
2018-11-01T19:16:59.177Z,62.53
2018-11-01T19:19:27.680Z,55.33
2018-11-01T19:21:56.241Z,52.45
2018-11-01T19:24:24.640Z,50.98
2018-11-01T19:26:53.144Z,54.03
2018-11-01T19:29:21.704Z,50.73
2018-11-01T19:31:50.499Z,53.48
2018-11-01T19:34:19.054Z,50.85
2018-11-01T19:36:47.401Z,49.20
2018-11-01T19:39:15.876Z,61.28
2018-11-01T19:41:44.631Z,51.85
2018-11-01T19:44:13.084Z,57.25
2018-11-01T19:46:45.643Z,50.85
2018-11-01T19:49:14.156Z,51.13
2018-11-01T19:51:42.621Z,53.38
2018-11-01T19:54:11.138Z,55.48
2018-11-01T19:56:39.548Z,52.17
2018-11-01T19:59:08.037Z,59.73
2018-11-01T20:01:36.523Z,53.20
2018-11-01T20:04:05.114Z,54.45
2018-11-01T20:06:33.560Z,49.35
2018-11-01T20:09:02.072Z,53.20
2018-11-01T20:11:30.496Z,50.45
2018-11-01T20:13:58.948Z,49.25
2018-11-01T20:16:27.404Z,48.92
2018-11-01T20:18:55.941Z,53.08
2018-11-01T20:21:24.382Z,51.68
2018-11-01T20:23:52.828Z,54.75
2018-11-01T20:26:21.544Z,53.02
2018-11-01T20:28:49.980Z,52.13
2018-11-01T20:31:18.593Z,54.18
2018-11-01T20:33:47.126Z,53.83
2018-11-01T20:36:15.517Z,54.08
2018-11-01T20:38:44.415Z,50.38
2018-11-01T20:41:12.948Z,48.90
2018-11-01T20:43:41.740Z,49.10
2018-11-01T20:46:10.240Z,53.70
2018-11-01T20:48:38.774Z,53.80
2018-11-01T20:51:07.248Z,48.38
2018-11-01T20:53:36.131Z,50.75
2018-11-01T20:56:04.747Z,50.00
2018-11-01T20:58:33.480Z,48.38
2018-11-01T21:01:02.074Z,48.35
2018-11-01T21:03:30.575Z,48.38
2018-11-01T21:05:59.039Z,55.48
2018-11-01T21:08:27.621Z,45.92
2018-11-01T21:10:57.974Z,52.60
2018-11-01T21:13:26.449Z,53.70
2018-11-01T21:15:54.955Z,46.50
2018-11-01T21:18:23.517Z,56.95
2018-11-01T21:20:52.375Z,51.28
2018-11-01T21:23:22.040Z,56.65
2018-11-01T21:25:50.526Z,48.48
2018-11-01T21:30:58.579Z,51.90
2018-11-01T21:33:34.776Z,44.45
2018-11-01T21:36:06.730Z,58.08
2018-11-01T22:37:15.539Z,47.10
2018-11-01T22:40:52.304Z,50.58
2018-11-01T22:50:10.915Z,44.93
2018-11-01T22:52:42.571Z,44.65
2018-11-01T22:55:12.391Z,55.13
2018-11-01T22:57:41.352Z,53.52
2018-11-01T23:00:12.609Z,49.77
2018-11-01T23:02:41.463Z,49.50
2018-11-01T23:05:10.767Z,49.20
2018-11-01T23:07:39.573Z,50.40
2018-11-01T23:10:10.396Z,44.50
2018-11-01T23:12:39.059Z,43.30
2018-11-01T23:15:08.875Z,46.53
2018-11-01T23:17:37.975Z,52.85
2018-11-01T23:20:06.975Z,45.90
2018-11-01T23:22:35.695Z,46.02
2018-11-01T23:25:05.597Z,49.90
2018-11-01T23:27:34.558Z,48.98
2018-11-01T23:30:03.455Z,45.78
2018-11-01T23:32:32.718Z,45.30
2018-11-01T23:35:01.616Z,38.88
2018-11-01T23:37:35.614Z,47.70
2018-11-01T23:40:10.131Z,41.55
2018-11-01T23:42:44.143Z,49.18
2018-11-01T23:45:18.135Z,46.15
2018-11-01T23:47:52.027Z,42.08
2018-11-01T23:50:31.678Z,44.23
2018-11-01T23:53:04.370Z,48.42
2018-11-01T23:55:33.270Z,44.15
2018-11-01T23:58:02.095Z,49.85
